createdAt,value
2023-03-30T00:01:01.080Z,19.60
2023-03-30T00:03:28.478Z,19.60
2023-03-30T00:05:58.809Z,19.60
2023-03-30T00:08:29.478Z,19.60
2023-03-30T00:11:02.338Z,19.70
2023-03-30T00:13:30.662Z,19.70
2023-03-30T00:15:57.487Z,19.70
2023-03-30T00:18:24.973Z,19.70
2023-03-30T00:20:52.560Z,19.70
2023-03-30T00:23:20.396Z,19.70
2023-03-30T00:25:47.424Z,19.70
2023-03-30T00:28:14.711Z,19.70
2023-03-30T00:30:41.785Z,19.70
2023-03-30T00:33:08.955Z,19.70
2023-03-30T00:35:36.632Z,19.70
2023-03-30T00:38:03.832Z,19.70
2023-03-30T00:40:33.045Z,19.70
2023-03-30T00:43:11.329Z,19.70
2023-03-30T00:45:38.305Z,19.80
2023-03-30T00:48:07.074Z,19.70
2023-03-30T00:50:43.196Z,19.70
2023-03-30T00:53:18.510Z,19.80
2023-03-30T00:55:47.478Z,19.80
2023-03-30T00:58:16.766Z,19.80
2023-03-30T01:00:47.057Z,19.70
2023-03-30T01:03:27.390Z,19.80
2023-03-30T01:05:57.117Z,19.80
2023-03-30T01:08:27.240Z,19.80
2023-03-30T01:10:55.869Z,19.70
2023-03-30T01:13:22.880Z,19.70
2023-03-30T01:16:08.027Z,19.70
2023-03-30T01:18:44.838Z,19.70
2023-03-30T01:21:33.153Z,19.70
2023-03-30T01:24:36.704Z,19.70
2023-03-30T01:27:46.460Z,19.70
2023-03-30T01:30:22.381Z,19.70
2023-03-30T01:33:15.723Z,19.70
2023-03-30T01:36:22.082Z,19.70
2023-03-30T01:39:03.973Z,19.70
2023-03-30T01:41:51.948Z,19.70
2023-03-30T01:44:36.741Z,19.70
2023-03-30T01:47:14.697Z,19.70
2023-03-30T01:49:52.452Z,19.70
2023-03-30T01:52:28.809Z,19.70
2023-03-30T01:55:04.748Z,19.70
2023-03-30T01:57:39.040Z,19.70
2023-03-30T02:00:13.391Z,19.70
2023-03-30T02:02:46.453Z,19.60
2023-03-30T02:05:18.023Z,19.70
2023-03-30T02:07:56.033Z,19.70
2023-03-30T02:10:27.433Z,19.60
2023-03-30T02:12:59.097Z,19.70
2023-03-30T02:15:31.435Z,19.60
2023-03-30T02:17:58.365Z,19.60
2023-03-30T02:20:25.805Z,19.60
2023-03-30T02:22:53.191Z,19.60
2023-03-30T02:25:20.053Z,19.60
2023-03-30T02:27:47.209Z,19.60
2023-03-30T02:30:14.830Z,19.60
2023-03-30T02:32:47.488Z,19.60
2023-03-30T02:35:42.634Z,19.60
2023-03-30T02:38:58.660Z,19.60
2023-03-30T02:41:46.500Z,19.60
2023-03-30T02:44:27.542Z,19.70
2023-03-30T02:47:08.431Z,19.70
2023-03-30T02:49:54.470Z,19.70
2023-03-30T02:52:34.065Z,19.70
2023-03-30T02:55:14.724Z,19.70
2023-03-30T02:58:18.644Z,19.70
2023-03-30T03:01:36.428Z,19.70
2023-03-30T03:04:12.651Z,19.70
2023-03-30T03:06:53.020Z,19.70
2023-03-30T03:09:20.431Z,19.70
2023-03-30T03:11:47.327Z,19.70
2023-03-30T03:14:14.223Z,19.70
2023-03-30T03:16:41.227Z,19.80
2023-03-30T03:19:16.113Z,19.80
2023-03-30T03:21:44.375Z,19.80
2023-03-30T03:24:13.798Z,19.80
2023-03-30T03:27:19.002Z,19.80
2023-03-30T03:30:12.623Z,19.80
2023-03-30T03:32:48.654Z,19.80
2023-03-30T03:35:17.132Z,19.80
2023-03-30T03:37:44.061Z,19.80
2023-03-30T03:40:11.518Z,19.80
2023-03-30T03:42:39.017Z,19.70
2023-03-30T03:45:11.516Z,19.70
2023-03-30T03:47:51.584Z,19.70
2023-03-30T03:50:24.005Z,19.70
2023-03-30T03:52:51.745Z,19.70
2023-03-30T03:55:19.623Z,19.60
2023-03-30T03:57:46.866Z,19.60
2023-03-30T04:00:16.526Z,19.60
2023-03-30T04:02:46.924Z,19.60
2023-03-30T04:05:13.870Z,19.60
2023-03-30T04:07:41.568Z,19.60
2023-03-30T04:10:09.130Z,19.60
2023-03-30T04:12:57.092Z,19.60
2023-03-30T04:15:32.738Z,19.60
2023-03-30T04:18:22.759Z,19.50
2023-03-30T04:21:07.672Z,19.60
2023-03-30T04:23:57.454Z,19.60
2023-03-30T04:26:59.093Z,19.60
2023-03-30T04:29:35.130Z,19.60
2023-03-30T04:32:20.723Z,19.60
2023-03-30T04:35:08.761Z,19.50
2023-03-30T04:37:54.248Z,19.60
2023-03-30T04:40:41.397Z,19.60
2023-03-30T04:43:40.947Z,19.60
2023-03-30T04:46:31.089Z,19.60
2023-03-30T04:49:09.194Z,19.60
2023-03-30T04:51:51.603Z,19.60
2023-03-30T04:54:50.942Z,19.60
2023-03-30T04:57:17.902Z,19.60
2023-03-30T04:59:59.599Z,19.60
2023-03-30T05:02:46.818Z,19.70
2023-03-30T05:05:45.816Z,19.70
2023-03-30T05:08:35.798Z,19.70
2023-03-30T05:11:25.043Z,19.70
2023-03-30T05:14:11.818Z,19.70
2023-03-30T05:16:49.021Z,19.60
2023-03-30T05:19:18.806Z,19.60
2023-03-30T05:21:54.379Z,19.60
2023-03-30T05:24:41.639Z,19.50
2023-03-30T05:27:18.076Z,19.50
2023-03-30T05:29:56.586Z,19.50
2023-03-30T05:32:43.778Z,19.40
2023-03-30T05:35:29.484Z,19.40
2023-03-30T05:38:13.836Z,19.30
2023-03-30T05:40:41.077Z,19.20
2023-03-30T05:43:26.172Z,19.10
2023-03-30T05:46:10.100Z,19.00
2023-03-30T05:48:43.123Z,19.00
2023-03-30T05:51:29.008Z,18.90
2023-03-30T05:54:03.601Z,18.80
2023-03-30T05:56:46.499Z,18.80
2023-03-30T05:59:21.662Z,18.70
2023-03-30T06:02:17.766Z,18.70
2023-03-30T06:04:45.986Z,18.60
2023-03-30T06:07:12.983Z,18.60
2023-03-30T06:09:39.831Z,18.50
2023-03-30T06:12:19.920Z,18.50
2023-03-30T06:14:46.841Z,18.40
2023-03-30T06:17:43.013Z,18.40
2023-03-30T06:20:13.278Z,18.30
2023-03-30T06:22:44.784Z,18.30
2023-03-30T06:25:16.928Z,18.20
2023-03-30T06:27:44.898Z,18.20
2023-03-30T06:30:19.711Z,18.10
2023-03-30T06:32:53.933Z,18.00
2023-03-30T06:35:25.383Z,18.00
2023-03-30T06:37:53.736Z,18.00
2023-03-30T06:40:21.210Z,17.90
2023-03-30T06:42:51.456Z,17.90
2023-03-30T06:45:39.813Z,17.90
2023-03-30T06:48:07.494Z,17.90
2023-03-30T06:50:39.062Z,17.90
2023-03-30T06:53:24.300Z,17.80
2023-03-30T06:55:55.205Z,17.80
2023-03-30T06:58:24.731Z,17.80
2023-03-30T07:00:53.599Z,17.80
2023-03-30T07:03:59.924Z,17.70
2023-03-30T07:06:47.877Z,17.70
2023-03-30T07:09:15.446Z,17.70
2023-03-30T07:11:43.746Z,17.60
2023-03-30T07:14:12.835Z,17.60
2023-03-30T07:16:41.282Z,17.60
2023-03-30T07:19:09.993Z,17.60
2023-03-30T07:21:37.161Z,17.50
2023-03-30T07:24:07.028Z,17.50
2023-03-30T07:26:37.144Z,17.50
2023-03-30T07:29:08.266Z,17.50
2023-03-30T07:31:38.129Z,17.50
2023-03-30T07:34:09.691Z,17.50
2023-03-30T07:36:41.649Z,17.40
2023-03-30T07:39:09.440Z,17.50
2023-03-30T07:41:39.672Z,17.40
2023-03-30T07:44:07.432Z,17.40
2023-03-30T07:46:35.080Z,17.40
2023-03-30T07:49:03.994Z,17.40
2023-03-30T07:51:34.909Z,17.40
2023-03-30T07:54:12.305Z,17.30
2023-03-30T07:56:59.067Z,17.40
2023-03-30T07:59:27.563Z,17.40
2023-03-30T08:02:00.679Z,17.40
2023-03-30T08:04:48.021Z,17.40
2023-03-30T08:07:21.002Z,17.40
2023-03-30T08:09:54.107Z,17.40
2023-03-30T08:12:21.957Z,17.40
2023-03-30T08:14:50.170Z,17.40
2023-03-30T08:17:19.392Z,17.40
2023-03-30T08:19:47.476Z,17.40
2023-03-30T08:22:15.114Z,17.40
2023-03-30T08:24:42.661Z,17.40
2023-03-30T08:27:10.625Z,17.40
2023-03-30T08:29:37.817Z,17.50
2023-03-30T08:32:06.019Z,17.50
2023-03-30T08:34:36.073Z,17.50
2023-03-30T08:37:05.622Z,17.60
2023-03-30T08:39:33.574Z,17.50
2023-03-30T08:42:20.295Z,17.60
2023-03-30T08:44:53.456Z,17.60
2023-03-30T08:47:38.116Z,17.60
2023-03-30T08:50:13.427Z,17.70
2023-03-30T08:52:42.128Z,17.70
2023-03-30T08:55:39.987Z,17.80
2023-03-30T08:58:27.359Z,17.90
2023-03-30T09:01:00.579Z,17.90
2023-03-30T09:03:53.684Z,18.00
2023-03-30T09:06:49.041Z,18.00
2023-03-30T09:09:19.645Z,18.00
2023-03-30T09:11:50.894Z,18.00
2023-03-30T09:14:32.855Z,18.00
2023-03-30T09:17:12.955Z,18.00
2023-03-30T09:19:54.405Z,18.10
2023-03-30T09:22:24.290Z,18.10
2023-03-30T09:24:52.560Z,18.10
2023-03-30T09:27:33.162Z,18.10
2023-03-30T09:30:20.957Z,18.10
2023-03-30T09:33:07.593Z,18.10
2023-03-30T09:35:43.047Z,18.10
2023-03-30T09:38:15.934Z,18.10
2023-03-30T09:41:06.488Z,18.10
2023-03-30T09:43:41.032Z,18.10
2023-03-30T09:46:08.294Z,18.10
2023-03-30T09:48:41.118Z,18.10
2023-03-30T09:51:15.488Z,18.20
2023-03-30T09:53:44.466Z,18.20
2023-03-30T09:56:22.631Z,18.20
2023-03-30T09:58:50.123Z,18.20
2023-03-30T10:01:20.320Z,18.20
2023-03-30T10:04:08.259Z,18.20
2023-03-30T10:06:48.632Z,18.20
2023-03-30T10:09:21.229Z,18.30
2023-03-30T10:11:52.830Z,18.30
2023-03-30T10:14:53.865Z,18.30
2023-03-30T10:17:25.426Z,18.30
2023-03-30T10:20:03.465Z,18.40
2023-03-30T10:23:01.801Z,18.40
2023-03-30T10:25:31.686Z,18.40
2023-03-30T10:28:03.092Z,18.40
2023-03-30T10:30:31.037Z,18.40
2023-03-30T10:33:01.787Z,18.50
2023-03-30T10:35:35.957Z,18.50
2023-03-30T10:38:05.247Z,18.50
2023-03-30T10:40:37.233Z,18.60
2023-03-30T10:43:08.743Z,18.60
2023-03-30T10:45:44.691Z,18.70
2023-03-30T10:48:36.854Z,18.70
2023-03-30T10:51:41.023Z,18.70
2023-03-30T10:54:11.509Z,18.70
2023-03-30T10:56:55.341Z,18.80
2023-03-30T10:59:44.485Z,18.80
2023-03-30T11:02:23.807Z,18.80
2023-03-30T11:05:15.798Z,18.90
2023-03-30T11:07:52.762Z,18.90
2023-03-30T11:10:47.389Z,18.90
2023-03-30T11:13:44.244Z,18.90
2023-03-30T11:16:20.481Z,18.90
2023-03-30T11:18:57.024Z,18.90
2023-03-30T11:21:45.228Z,19.00
2023-03-30T11:24:18.874Z,19.00
2023-03-30T11:26:52.467Z,19.00
2023-03-30T11:29:38.594Z,19.00
2023-03-30T11:32:32.363Z,19.00
2023-03-30T11:35:17.254Z,19.00
2023-03-30T11:38:08.165Z,19.00
2023-03-30T11:40:43.733Z,19.10
2023-03-30T11:43:12.496Z,19.10
2023-03-30T11:45:46.006Z,19.20
2023-03-30T11:48:31.431Z,19.20
2023-03-30T11:51:28.312Z,19.20
2023-03-30T11:54:25.563Z,19.30
2023-03-30T11:57:00.690Z,19.30
2023-03-30T11:59:48.687Z,19.40
2023-03-30T12:02:21.106Z,19.40
2023-03-30T12:04:50.039Z,19.40
2023-03-30T12:07:42.609Z,19.40
2023-03-30T12:10:36.988Z,19.30
2023-03-30T12:13:04.016Z,19.40
2023-03-30T12:15:46.457Z,19.30
2023-03-30T12:18:37.181Z,19.30
2023-03-30T12:21:25.738Z,19.30
2023-03-30T12:24:19.581Z,19.30
2023-03-30T12:27:02.212Z,19.30
2023-03-30T12:32:29.683Z,19.30
2023-03-30T12:34:59.209Z,19.40
2023-03-30T12:37:34.707Z,19.40
2023-03-30T12:40:22.710Z,19.40
2023-03-30T12:43:08.677Z,19.40
2023-03-30T12:45:43.484Z,19.50
2023-03-30T12:48:22.580Z,19.50
2023-03-30T12:50:58.536Z,19.60
2023-03-30T12:53:47.300Z,19.60
2023-03-30T12:56:40.546Z,19.60
2023-03-30T12:59:27.063Z,19.60
2023-03-30T13:02:15.815Z,19.60
2023-03-30T13:04:46.567Z,19.60
2023-03-30T13:07:27.101Z,19.70
2023-03-30T13:09:59.838Z,19.60
2023-03-30T13:12:31.491Z,19.70
2023-03-30T13:15:15.808Z,19.70
2023-03-30T13:18:09.244Z,19.80
2023-03-30T13:20:58.348Z,19.80
2023-03-30T13:23:31.561Z,19.80
2023-03-30T13:25:59.000Z,19.90
2023-03-30T13:28:48.904Z,19.90
2023-03-30T13:31:24.722Z,19.90
2023-03-30T13:34:22.672Z,19.90
2023-03-30T13:37:24.504Z,19.90
2023-03-30T13:40:09.355Z,19.90
2023-03-30T13:42:57.803Z,19.90
2023-03-30T13:46:09.202Z,19.90
2023-03-30T13:48:51.908Z,19.90
2023-03-30T13:51:27.412Z,20.00
2023-03-30T13:54:05.099Z,20.00
2023-03-30T13:56:36.328Z,20.00
2023-03-30T13:59:07.350Z,20.00
2023-03-30T14:01:35.681Z,20.10
2023-03-30T14:04:04.052Z,20.10
2023-03-30T14:06:34.344Z,20.10
2023-03-30T14:09:05.468Z,20.10
2023-03-30T14:11:44.836Z,20.20
2023-03-30T14:14:38.220Z,20.20
2023-03-30T14:17:17.200Z,20.20
2023-03-30T14:19:54.063Z,20.20
2023-03-30T14:22:27.343Z,20.30
2023-03-30T14:25:02.570Z,20.30
2023-03-30T14:27:39.386Z,20.40
2023-03-30T14:30:34.401Z,20.40
2023-03-30T14:33:12.771Z,20.40
2023-03-30T14:35:45.807Z,20.50
2023-03-30T14:38:25.837Z,20.50
2023-03-30T14:40:54.956Z,20.50
2023-03-30T14:43:29.155Z,20.50
2023-03-30T14:45:58.828Z,20.50
2023-03-30T14:48:32.900Z,20.50
2023-03-30T14:51:02.573Z,20.40
2023-03-30T14:53:30.977Z,20.40
2023-03-30T14:56:01.026Z,20.40
2023-03-30T14:58:32.701Z,20.40
2023-03-30T15:01:03.695Z,20.40
2023-03-30T15:03:34.813Z,20.40
2023-03-30T15:06:03.744Z,20.40
2023-03-30T15:08:33.533Z,20.40
2023-03-30T15:11:10.730Z,20.40
2023-03-30T15:13:46.668Z,20.40
2023-03-30T15:16:18.910Z,20.40
2023-03-30T15:18:45.786Z,20.40
2023-03-30T15:21:13.703Z,20.40
2023-03-30T15:23:43.242Z,20.40
2023-03-30T15:26:12.211Z,20.40
2023-03-30T15:28:47.728Z,20.40
2023-03-30T15:31:16.191Z,20.40
2023-03-30T15:33:51.924Z,20.40
2023-03-30T15:36:20.120Z,20.40
2023-03-30T15:38:52.473Z,20.40
2023-03-30T15:41:24.785Z,20.30
2023-03-30T15:44:09.693Z,20.40
2023-03-30T15:46:37.736Z,20.40
2023-03-30T15:49:05.976Z,20.40
2023-03-30T15:51:39.529Z,20.40
2023-03-30T15:54:15.402Z,20.40
2023-03-30T15:57:05.051Z,20.40
2023-03-30T15:59:39.323Z,20.30
2023-03-30T16:02:15.710Z,20.30
2023-03-30T16:04:42.965Z,20.30
2023-03-30T16:07:21.888Z,20.30
2023-03-30T16:09:49.050Z,20.30
2023-03-30T16:12:22.134Z,20.30
2023-03-30T16:14:49.032Z,20.30
2023-03-30T16:17:16.556Z,20.30
2023-03-30T16:19:43.866Z,20.20
2023-03-30T16:22:12.724Z,20.20
2023-03-30T16:24:40.883Z,20.20
2023-03-30T16:27:10.634Z,20.20
2023-03-30T16:29:37.762Z,20.10
2023-03-30T16:32:05.723Z,20.10
2023-03-30T16:34:32.932Z,20.10
2023-03-30T16:36:59.789Z,20.10
2023-03-30T16:39:28.989Z,20.00
2023-03-30T16:41:56.529Z,20.00
2023-03-30T16:44:24.815Z,20.00
2023-03-30T16:46:52.258Z,20.00
2023-03-30T16:49:21.820Z,20.00
2023-03-30T16:51:49.100Z,20.00
2023-03-30T16:54:27.625Z,19.90
2023-03-30T16:56:58.007Z,19.90
2023-03-30T16:59:26.917Z,19.90
2023-03-30T17:01:53.850Z,19.90
2023-03-30T17:04:20.834Z,19.90
2023-03-30T17:06:47.970Z,19.90
2023-03-30T17:09:19.666Z,19.90
2023-03-30T17:11:48.272Z,19.90
2023-03-30T17:14:15.708Z,19.80
2023-03-30T17:16:43.234Z,19.80
2023-03-30T17:19:12.902Z,19.80
2023-03-30T17:21:42.715Z,19.80
2023-03-30T17:24:10.676Z,19.70
2023-03-30T17:26:38.197Z,19.70
2023-03-30T17:29:05.068Z,19.60
2023-03-30T17:31:31.934Z,19.60
2023-03-30T17:33:58.815Z,19.60
2023-03-30T17:36:26.803Z,19.60
2023-03-30T17:38:53.630Z,19.60
2023-03-30T17:41:21.313Z,19.50
2023-03-30T17:43:48.835Z,19.50
2023-03-30T17:46:18.269Z,19.50
2023-03-30T17:48:45.707Z,19.40
2023-03-30T17:51:12.731Z,19.40
2023-03-30T17:53:39.950Z,19.40
2023-03-30T17:56:07.419Z,19.40
2023-03-30T17:58:36.439Z,19.40
2023-03-30T18:01:08.665Z,19.30
2023-03-30T18:03:38.609Z,19.30
2023-03-30T18:06:06.437Z,19.30
2023-03-30T18:08:33.610Z,19.30
2023-03-30T18:11:01.649Z,19.20
2023-03-30T18:13:30.539Z,19.20
2023-03-30T18:15:59.222Z,19.20
2023-03-30T18:18:29.601Z,19.20
2023-03-30T18:20:59.342Z,19.10
2023-03-30T18:23:26.262Z,19.10
2023-03-30T18:25:53.200Z,19.10
2023-03-30T18:28:26.080Z,19.00
2023-03-30T18:30:55.529Z,19.00
2023-03-30T18:33:22.447Z,19.10
2023-03-30T18:35:51.399Z,19.00
2023-03-30T18:38:21.319Z,19.00
2023-03-30T18:40:50.805Z,19.00
2023-03-30T18:43:18.181Z,19.00
2023-03-30T18:45:49.504Z,19.00
2023-03-30T18:48:21.553Z,19.00
2023-03-30T18:50:54.012Z,19.00
2023-03-30T18:53:23.600Z,18.90
2023-03-30T18:55:52.549Z,19.00
2023-03-30T18:58:22.985Z,18.90
2023-03-30T19:00:51.741Z,18.90
2023-03-30T19:03:20.062Z,18.90
2023-03-30T19:05:47.476Z,18.90
2023-03-30T19:08:19.978Z,18.90
2023-03-30T19:10:49.859Z,18.90
2023-03-30T19:13:19.042Z,18.90
2023-03-30T19:15:48.050Z,18.90
2023-03-30T19:18:18.150Z,18.90
2023-03-30T19:20:46.477Z,18.80
2023-03-30T19:23:16.124Z,18.90
2023-03-30T19:25:44.618Z,18.80
2023-03-30T19:28:12.702Z,18.90
2023-03-30T19:30:40.513Z,18.80
2023-03-30T19:33:12.239Z,18.80
2023-03-30T19:35:41.381Z,18.80
2023-03-30T19:38:08.780Z,18.80
2023-03-30T19:40:41.046Z,18.80
2023-03-30T19:43:08.423Z,18.70
2023-03-30T19:45:35.678Z,18.70
2023-03-30T19:48:02.682Z,18.70
2023-03-30T19:50:30.569Z,18.70
2023-03-30T19:52:57.963Z,18.70
2023-03-30T19:55:25.019Z,18.70
2023-03-30T19:57:52.042Z,18.70
2023-03-30T20:00:19.762Z,18.70
2023-03-30T20:02:49.491Z,18.70
2023-03-30T20:05:17.890Z,18.60
2023-03-30T20:07:46.186Z,18.60
2023-03-30T20:10:18.737Z,18.60
2023-03-30T20:12:46.880Z,18.60
2023-03-30T20:15:14.986Z,18.50
2023-03-30T20:17:42.249Z,18.50
2023-03-30T20:20:13.904Z,18.50
2023-03-30T20:22:42.686Z,18.50
2023-03-30T20:25:12.761Z,18.50
2023-03-30T20:27:40.254Z,18.50
2023-03-30T20:30:08.162Z,18.50
2023-03-30T20:32:35.409Z,18.50
2023-03-30T20:35:02.298Z,18.50
2023-03-30T20:37:29.183Z,18.50
2023-03-30T20:40:03.592Z,18.40
2023-03-30T20:42:32.000Z,18.40
2023-03-30T20:44:59.623Z,18.40
2023-03-30T20:47:30.645Z,18.40
2023-03-30T20:49:58.676Z,18.40
2023-03-30T20:52:26.334Z,18.40
2023-03-30T20:54:53.412Z,18.30
2023-03-30T20:57:21.386Z,18.30
2023-03-30T20:59:49.289Z,18.30
2023-03-30T21:02:16.971Z,18.30
2023-03-30T21:04:44.682Z,18.30
2023-03-30T21:07:12.317Z,18.30
2023-03-30T21:09:39.523Z,18.30
2023-03-30T21:12:07.519Z,18.30
2023-03-30T21:14:34.311Z,18.30
2023-03-30T21:17:01.727Z,18.30
2023-03-30T21:19:28.583Z,18.30
2023-03-30T21:21:55.585Z,18.30
2023-03-30T21:24:22.437Z,18.30
2023-03-30T21:26:50.217Z,18.20
2023-03-30T21:29:17.611Z,18.30
2023-03-30T21:31:44.434Z,18.30
2023-03-30T21:34:11.809Z,18.30
2023-03-30T21:36:39.511Z,18.30
2023-03-30T21:39:06.497Z,18.20
2023-03-30T21:41:33.330Z,18.30
2023-03-30T21:44:00.156Z,18.30
2023-03-30T21:46:27.356Z,18.30
2023-03-30T21:48:54.647Z,18.30
2023-03-30T21:51:30.373Z,18.30
2023-03-30T21:53:57.908Z,18.30
2023-03-30T21:56:28.913Z,18.20
2023-03-30T21:58:56.459Z,18.20
2023-03-30T22:01:24.256Z,18.30
2023-03-30T22:03:52.630Z,18.30
2023-03-30T22:06:20.516Z,18.30
2023-03-30T22:08:48.269Z,18.30
2023-03-30T22:11:18.085Z,18.30
2023-03-30T22:13:47.995Z,18.30
2023-03-30T22:16:28.627Z,18.30
2023-03-30T22:18:55.744Z,18.30
2023-03-30T22:21:24.745Z,18.30
2023-03-30T22:23:54.668Z,18.30
2023-03-30T22:26:22.302Z,18.30
2023-03-30T22:28:49.236Z,18.30
2023-03-30T22:31:16.822Z,18.30
2023-03-30T22:33:44.340Z,18.30
2023-03-30T22:36:19.642Z,18.30
2023-03-30T22:38:48.604Z,18.30
2023-03-30T22:41:15.976Z,18.30
2023-03-30T22:43:42.822Z,18.30
2023-03-30T22:46:10.032Z,18.30
2023-03-30T22:48:37.714Z,18.20
2023-03-30T22:51:05.146Z,18.30
2023-03-30T22:53:32.831Z,18.20
2023-03-30T22:56:01.007Z,18.20
2023-03-30T22:58:28.240Z,18.20
2023-03-30T23:01:02.501Z,18.20
2023-03-30T23:03:29.660Z,18.10
2023-03-30T23:06:01.023Z,18.20
2023-03-30T23:08:32.095Z,18.20
2023-03-30T23:11:05.249Z,18.20
2023-03-30T23:13:37.380Z,18.10
2023-03-30T23:16:06.632Z,18.10
2023-03-30T23:18:34.333Z,18.10
2023-03-30T23:21:06.993Z,18.10
2023-03-30T23:23:35.744Z,18.10
2023-03-30T23:26:08.340Z,18.10
2023-03-30T23:28:38.448Z,18.00
2023-03-30T23:31:13.338Z,18.00
2023-03-30T23:33:41.484Z,18.00
2023-03-30T23:36:09.731Z,18.00
2023-03-30T23:38:37.451Z,18.00
2023-03-30T23:41:06.068Z,18.00
2023-03-30T23:43:32.964Z,18.00
2023-03-30T23:46:00.142Z,17.90
2023-03-30T23:48:27.101Z,17.90
2023-03-30T23:50:53.957Z,17.90
2023-03-30T23:53:20.748Z,17.90
2023-03-30T23:55:50.181Z,17.90
2023-03-30T23:58:18.260Z,17.90
